sensor_id;sensor_type;location;lat;lon;timestamp;pressure;altitude;pressure_sealevel;temperature;humidity
15604;BME280;7902;49.042;9.092;2024-03-25T00:00:13;98318.44;;;10.31;56.71
15604;BME280;7902;49.042;9.092;2024-03-25T00:02:40;98312.84;;;10.24;57.66
15604;BME280;7902;49.042;9.092;2024-03-25T00:05:07;98314.38;;;10.27;57.85
15604;BME280;7902;49.042;9.092;2024-03-25T00:07:36;98314.31;;;10.38;57.28
15604;BME280;7902;49.042;9.092;2024-03-25T00:10:02;98319.31;;;10.41;56.85
15604;BME280;7902;49.042;9.092;2024-03-25T00:12:28;98321.75;;;10.33;57.06
15604;BME280;7902;49.042;9.092;2024-03-25T00:14:54;98314.06;;;10.41;57.04
15604;BME280;7902;49.042;9.092;2024-03-25T00:17:20;98317.97;;;10.26;58.05
15604;BME280;7902;49.042;9.092;2024-03-25T00:19:46;98310.41;;;10.32;57.87
15604;BME280;7902;49.042;9.092;2024-03-25T00:22:20;98316.69;;;10.41;57.16
15604;BME280;7902;49.042;9.092;2024-03-25T00:24:47;98321.56;;;10.13;57.62
15604;BME280;7902;49.042;9.092;2024-03-25T00:27:13;98317.13;;;10.46;57.36
15604;BME280;7902;49.042;9.092;2024-03-25T00:29:40;98308.50;;;10.34;57.20
15604;BME280;7902;49.042;9.092;2024-03-25T00:32:06;98307.41;;;10.37;57.82
15604;BME280;7902;49.042;9.092;2024-03-25T00:41:04;98305.50;;;10.18;57.92
15604;BME280;7902;49.042;9.092;2024-03-25T00:43:30;98310.41;;;10.32;57.83
15604;BME280;7902;49.042;9.092;2024-03-25T00:45:56;98300.69;;;10.23;57.78
15604;BME280;7902;49.042;9.092;2024-03-25T00:48:22;98309.41;;;10.24;58.11
15604;BME280;7902;49.042;9.092;2024-03-25T00:50:49;98305.72;;;10.15;57.96
15604;BME280;7902;49.042;9.092;2024-03-25T00:53:15;98311.75;;;10.06;58.24
15604;BME280;7902;49.042;9.092;2024-03-25T00:55:40;98301.53;;;10.12;58.50
15604;BME280;7902;49.042;9.092;2024-03-25T00:58:07;98309.41;;;10.24;57.71
15604;BME280;7902;49.042;9.092;2024-03-25T01:00:32;98313.03;;;10.11;58.30
15604;BME280;7902;49.042;9.092;2024-03-25T01:02:58;98311.16;;;10.02;58.35
15604;BME280;7902;49.042;9.092;2024-03-25T01:05:24;98306.31;;;10.19;58.23
15604;BME280;7902;49.042;9.092;2024-03-25T01:07:50;98312.81;;;10.03;58.00
15604;BME280;7902;49.042;9.092;2024-03-25T01:10:16;98295.22;;;10.26;57.35
15604;BME280;7902;49.042;9.092;2024-03-25T01:12:42;98306.88;;;10.22;58.32
15604;BME280;7902;49.042;9.092;2024-03-25T01:15:08;98303.47;;;10.10;58.25
15604;BME280;7902;49.042;9.092;2024-03-25T01:17:36;98297.28;;;10.11;58.19
15604;BME280;7902;49.042;9.092;2024-03-25T01:20:02;98308.78;;;9.99;58.63
15604;BME280;7902;49.042;9.092;2024-03-25T01:22:31;98305.91;;;10.02;58.70
15604;BME280;7902;49.042;9.092;2024-03-25T01:24:57;98299.47;;;10.06;58.68
15604;BME280;7902;49.042;9.092;2024-03-25T01:27:23;98300.44;;;9.94;58.24
15604;BME280;7902;49.042;9.092;2024-03-25T01:29:49;98300.97;;;10.09;57.86
15604;BME280;7902;49.042;9.092;2024-03-25T01:32:15;98302.75;;;10.08;58.48
15604;BME280;7902;49.042;9.092;2024-03-25T01:34:41;98306.22;;;9.88;58.72
15604;BME280;7902;49.042;9.092;2024-03-25T01:37:07;98294.13;;;9.97;58.14
15604;BME280;7902;49.042;9.092;2024-03-25T01:39:33;98301.78;;;9.89;58.36
15604;BME280;7902;49.042;9.092;2024-03-25T01:41:58;98297.22;;;10.02;58.41
15604;BME280;7902;49.042;9.092;2024-03-25T01:44:24;98295.81;;;9.98;58.49
15604;BME280;7902;49.042;9.092;2024-03-25T01:46:50;98296.63;;;9.98;58.62
15604;BME280;7902;49.042;9.092;2024-03-25T01:49:19;98301.84;;;9.98;58.00
15604;BME280;7902;49.042;9.092;2024-03-25T01:51:45;98296.31;;;9.92;58.53
15604;BME280;7902;49.042;9.092;2024-03-25T01:54:11;98295.22;;;9.94;58.71
15604;BME280;7902;49.042;9.092;2024-03-25T01:56:40;98300.25;;;9.86;58.63
15604;BME280;7902;49.042;9.092;2024-03-25T01:59:07;98297.16;;;9.92;58.24
15604;BME280;7902;49.042;9.092;2024-03-25T02:01:33;98301.75;;;9.79;59.15
15604;BME280;7902;49.042;9.092;2024-03-25T02:04:00;98304.06;;;9.93;58.84
15604;BME280;7902;49.042;9.092;2024-03-25T02:06:27;98300.53;;;10.04;58.86
15604;BME280;7902;49.042;9.092;2024-03-25T02:08:54;98302.56;;;10.00;58.34
15604;BME280;7902;49.042;9.092;2024-03-25T02:11:20;98308.00;;;9.88;58.90
15604;BME280;7902;49.042;9.092;2024-03-25T02:13:46;98296.44;;;9.90;58.76
15604;BME280;7902;49.042;9.092;2024-03-25T02:16:12;98309.03;;;9.96;58.37
15604;BME280;7902;49.042;9.092;2024-03-25T02:18:38;98298.75;;;10.04;58.51
15604;BME280;7902;49.042;9.092;2024-03-25T02:21:04;98294.28;;;9.84;59.06
15604;BME280;7902;49.042;9.092;2024-03-25T02:23:32;98298.06;;;10.02;58.00
15604;BME280;7902;49.042;9.092;2024-03-25T02:25:59;98304.47;;;9.98;58.08
15604;BME280;7902;49.042;9.092;2024-03-25T02:28:25;98308.91;;;9.98;57.98
15604;BME280;7902;49.042;9.092;2024-03-25T02:30:51;98310.44;;;10.00;58.25
15604;BME280;7902;49.042;9.092;2024-03-25T02:33:17;98308.66;;;10.01;57.90
15604;BME280;7902;49.042;9.092;2024-03-25T02:35:43;98301.16;;;9.96;58.76
15604;BME280;7902;49.042;9.092;2024-03-25T02:38:10;98296.94;;;10.05;58.22
15604;BME280;7902;49.042;9.092;2024-03-25T02:40:37;98294.22;;;10.06;58.54
15604;BME280;7902;49.042;9.092;2024-03-25T02:43:03;98299.50;;;9.95;58.31
15604;BME280;7902;49.042;9.092;2024-03-25T02:45:29;98292.41;;;10.07;57.89
15604;BME280;7902;49.042;9.092;2024-03-25T02:47:55;98295.47;;;9.91;58.33
15604;BME280;7902;49.042;9.092;2024-03-25T02:50:21;98297.06;;;10.03;58.44
15604;BME280;7902;49.042;9.092;2024-03-25T02:52:47;98295.59;;;9.90;57.90
15604;BME280;7902;49.042;9.092;2024-03-25T02:55:13;98307.56;;;10.03;58.10
15604;BME280;7902;49.042;9.092;2024-03-25T02:57:39;98301.66;;;10.22;57.79
15604;BME280;7902;49.042;9.092;2024-03-25T03:00:05;98296.84;;;10.06;57.91
15604;BME280;7902;49.042;9.092;2024-03-25T03:02:31;98304.44;;;10.09;57.75
15604;BME280;7902;49.042;9.092;2024-03-25T03:04:57;98302.25;;;10.14;57.40
15604;BME280;7902;49.042;9.092;2024-03-25T03:07:23;98308.34;;;10.15;57.96
15604;BME280;7902;49.042;9.092;2024-03-25T03:09:49;98303.78;;;9.96;57.91
15604;BME280;7902;49.042;9.092;2024-03-25T03:12:15;98303.22;;;10.13;57.98
15604;BME280;7902;49.042;9.092;2024-03-25T03:14:41;98301.06;;;9.98;58.41
15604;BME280;7902;49.042;9.092;2024-03-25T03:17:07;98302.03;;;10.18;57.46
15604;BME280;7902;49.042;9.092;2024-03-25T03:19:33;98299.75;;;10.13;57.00
15604;BME280;7902;49.042;9.092;2024-03-25T03:21:59;98293.03;;;9.99;58.23
15604;BME280;7902;49.042;9.092;2024-03-25T03:24:24;98294.75;;;10.21;57.53
15604;BME280;7902;49.042;9.092;2024-03-25T03:26:50;98292.41;;;10.07;57.55
15604;BME280;7902;49.042;9.092;2024-03-25T03:29:16;98293.81;;;9.90;58.29
15604;BME280;7902;49.042;9.092;2024-03-25T03:31:42;98294.22;;;10.06;57.12
15604;BME280;7902;49.042;9.092;2024-03-25T03:34:08;98284.13;;;10.23;57.07
15604;BME280;7902;49.042;9.092;2024-03-25T03:36:34;98282.72;;;10.19;57.69
15604;BME280;7902;49.042;9.092;2024-03-25T03:39:00;98279.50;;;10.15;56.87
15604;BME280;7902;49.042;9.092;2024-03-25T03:41:26;98285.09;;;10.22;57.42
15604;BME280;7902;49.042;9.092;2024-03-25T03:43:52;98282.72;;;10.19;56.95
15604;BME280;7902;49.042;9.092;2024-03-25T03:46:18;98280.81;;;10.21;56.91
15604;BME280;7902;49.042;9.092;2024-03-25T03:48:44;98281.88;;;10.18;57.00
15604;BME280;7902;49.042;9.092;2024-03-25T03:51:10;98285.13;;;10.10;57.60
15604;BME280;7902;49.042;9.092;2024-03-25T03:53:35;98288.50;;;10.01;58.08
15604;BME280;7902;49.042;9.092;2024-03-25T03:56:03;98292.59;;;9.94;58.08
15604;BME280;7902;49.042;9.092;2024-03-25T03:58:33;98288.50;;;10.01;58.09
15604;BME280;7902;49.042;9.092;2024-03-25T04:00:59;98297.53;;;10.08;57.43
15604;BME280;7902;49.042;9.092;2024-03-25T04:03:25;98286.06;;;10.09;57.79
15604;BME280;7902;49.042;9.092;2024-03-25T04:05:51;98291.59;;;10.06;57.72
15604;BME280;7902;49.042;9.092;2024-03-25T04:08:17;98301.81;;;10.09;57.18
15604;BME280;7902;49.042;9.092;2024-03-25T04:10:44;98299.63;;;9.94;58.27
15604;BME280;7902;49.042;9.092;2024-03-25T04:13:11;98302.13;;;9.95;58.30
15604;BME280;7902;49.042;9.092;2024-03-25T04:15:38;98308.59;;;9.91;58.42
15604;BME280;7902;49.042;9.092;2024-03-25T04:18:04;98317.47;;;9.79;58.45
15604;BME280;7902;49.042;9.092;2024-03-25T04:20:41;98306.53;;;9.95;57.66
15604;BME280;7902;49.042;9.092;2024-03-25T04:23:07;98310.25;;;9.92;58.17
15604;BME280;7902;49.042;9.092;2024-03-25T04:25:34;98316.94;;;9.85;58.28
15604;BME280;7902;49.042;9.092;2024-03-25T04:28:00;98301.94;;;9.87;58.29
15604;BME280;7902;49.042;9.092;2024-03-25T04:30:26;98304.09;;;9.82;58.71
15604;BME280;7902;49.042;9.092;2024-03-25T04:32:52;98305.06;;;9.81;58.13
15604;BME280;7902;49.042;9.092;2024-03-25T04:35:18;98303.91;;;9.74;58.73
15604;BME280;7902;49.042;9.092;2024-03-25T04:37:44;98295.72;;;9.88;58.76
15604;BME280;7902;49.042;9.092;2024-03-25T04:40:10;98300.91;;;9.79;58.62
15604;BME280;7902;49.042;9.092;2024-03-25T04:42:40;98306.75;;;9.71;58.65
15604;BME280;7902;49.042;9.092;2024-03-25T04:45:07;98305.53;;;9.75;58.66
15604;BME280;7902;49.042;9.092;2024-03-25T04:47:33;98310.47;;;9.68;58.21
15604;BME280;7902;49.042;9.092;2024-03-25T04:50:02;98308.38;;;9.83;58.39
15604;BME280;7902;49.042;9.092;2024-03-25T04:52:28;98310.31;;;9.70;58.40
15604;BME280;7902;49.042;9.092;2024-03-25T04:54:54;98308.31;;;9.74;58.42
15604;BME280;7902;49.042;9.092;2024-03-25T04:57:20;98309.38;;;9.71;58.60
15604;BME280;7902;49.042;9.092;2024-03-25T04:59:46;98310.94;;;9.74;58.84
15604;BME280;7902;49.042;9.092;2024-03-25T05:02:12;98313.41;;;9.75;58.64
15604;BME280;7902;49.042;9.092;2024-03-25T05:04:39;98316.78;;;9.66;58.48
15604;BME280;7902;49.042;9.092;2024-03-25T05:07:05;98314.03;;;9.67;58.40
15604;BME280;7902;49.042;9.092;2024-03-25T05:09:31;98321.09;;;9.56;59.10
15604;BME280;7902;49.042;9.092;2024-03-25T05:11:57;98308.44;;;9.61;58.52
15604;BME280;7902;49.042;9.092;2024-03-25T05:14:23;98310.88;;;9.53;59.46
15604;BME280;7902;49.042;9.092;2024-03-25T05:16:49;98320.88;;;9.59;59.06
15604;BME280;7902;49.042;9.092;2024-03-25T05:19:18;98313.94;;;9.58;58.73
15604;BME280;7902;49.042;9.092;2024-03-25T05:21:44;98321.63;;;9.39;59.02
15604;BME280;7902;49.042;9.092;2024-03-25T05:24:10;98326.38;;;9.45;59.03
15604;BME280;7902;49.042;9.092;2024-03-25T05:26:36;98326.13;;;9.48;58.86
15604;BME280;7902;49.042;9.092;2024-03-25T05:29:02;98323.72;;;9.56;58.56
15604;BME280;7902;49.042;9.092;2024-03-25T05:31:28;98326.50;;;9.43;59.33
15604;BME280;7902;49.042;9.092;2024-03-25T05:33:54;98324.13;;;9.40;59.61
15604;BME280;7902;49.042;9.092;2024-03-25T05:36:20;98328.06;;;9.35;59.05
15604;BME280;7902;49.042;9.092;2024-03-25T05:38:46;98324.56;;;9.56;59.01
15604;BME280;7902;49.042;9.092;2024-03-25T05:41:12;98331.00;;;9.52;58.44
15604;BME280;7902;49.042;9.092;2024-03-25T05:43:38;98335.41;;;9.52;59.12
15604;BME280;7902;49.042;9.092;2024-03-25T05:46:04;98334.66;;;9.61;58.99
15604;BME280;7902;49.042;9.092;2024-03-25T05:48:30;98334.25;;;9.34;59.62
15604;BME280;7902;49.042;9.092;2024-03-25T05:51:05;98332.31;;;9.47;59.58
15604;BME280;7902;49.042;9.092;2024-03-25T05:53:33;98327.81;;;9.38;58.88
15604;BME280;7902;49.042;9.092;2024-03-25T05:55:59;98331.16;;;9.40;58.88
15604;BME280;7902;49.042;9.092;2024-03-25T05:58:26;98333.56;;;9.32;60.04
15604;BME280;7902;49.042;9.092;2024-03-25T06:00:52;98339.47;;;9.45;59.49
15604;BME280;7902;49.042;9.092;2024-03-25T06:03:21;98334.00;;;9.48;58.78
15604;BME280;7902;49.042;9.092;2024-03-25T06:05:47;98325.84;;;9.62;59.13
15604;BME280;7902;49.042;9.092;2024-03-25T06:08:13;98335.78;;;9.47;59.11
15604;BME280;7902;49.042;9.092;2024-03-25T06:10:47;98338.50;;;9.57;59.11
15604;BME280;7902;49.042;9.092;2024-03-25T06:13:13;98334.91;;;9.58;58.56
15604;BME280;7902;49.042;9.092;2024-03-25T06:15:39;98329.28;;;9.74;59.30
15604;BME280;7902;49.042;9.092;2024-03-25T06:18:04;98336.16;;;9.75;59.00
15604;BME280;7902;49.042;9.092;2024-03-25T06:20:30;98341.84;;;9.59;59.46
15604;BME280;7902;49.042;9.092;2024-03-25T06:22:56;98335.81;;;9.79;58.69
15604;BME280;7902;49.042;9.092;2024-03-25T06:25:22;98341.63;;;9.40;59.37
15604;BME280;7902;49.042;9.092;2024-03-25T06:27:48;98351.13;;;9.52;59.47
15604;BME280;7902;49.042;9.092;2024-03-25T06:30:14;98352.06;;;9.62;58.67
15604;BME280;7902;49.042;9.092;2024-03-25T06:32:59;98348.84;;;9.69;58.77
15604;BME280;7902;49.042;9.092;2024-03-25T06:35:44;98353.66;;;9.85;58.55
15604;BME280;7902;49.042;9.092;2024-03-25T06:38:10;98357.84;;;9.77;58.90
15604;BME280;7902;49.042;9.092;2024-03-25T06:40:37;98354.75;;;9.83;58.40
15604;BME280;7902;49.042;9.092;2024-03-25T06:43:04;98354.50;;;9.86;58.41
15604;BME280;7902;49.042;9.092;2024-03-25T06:45:30;98361.03;;;9.91;59.04
15604;BME280;7902;49.042;9.092;2024-03-25T06:47:56;98357.00;;;9.87;58.64
15604;BME280;7902;49.042;9.092;2024-03-25T06:50:23;98362.47;;;9.84;58.98
15604;BME280;7902;49.042;9.092;2024-03-25T06:52:49;98366.38;;;9.90;58.32
15604;BME280;7902;49.042;9.092;2024-03-25T06:55:16;98372.00;;;9.85;58.67
15604;BME280;7902;49.042;9.092;2024-03-25T06:57:41;98362.56;;;9.94;59.01
15604;BME280;7902;49.042;9.092;2024-03-25T07:00:08;98362.56;;;9.94;59.06
15604;BME280;7902;49.042;9.092;2024-03-25T07:02:41;98362.09;;;9.89;58.31
15604;BME280;7902;49.042;9.092;2024-03-25T07:05:08;98367.47;;;9.87;58.00
15604;BME280;7902;49.042;9.092;2024-03-25T07:07:34;98366.00;;;9.94;58.81
15604;BME280;7902;49.042;9.092;2024-03-25T07:10:00;98373.50;;;9.99;57.99
15604;BME280;7902;49.042;9.092;2024-03-25T07:12:26;98370.41;;;9.94;58.10
15604;BME280;7902;49.042;9.092;2024-03-25T07:14:52;98366.25;;;10.02;57.63
15604;BME280;7902;49.042;9.092;2024-03-25T07:17:18;98359.06;;;10.04;56.61
15604;BME280;7902;49.042;9.092;2024-03-25T07:19:44;98375.19;;;10.00;57.19
15604;BME280;7902;49.042;9.092;2024-03-25T07:22:10;98369.44;;;10.06;56.56
15604;BME280;7902;49.042;9.092;2024-03-25T07:24:36;98378.13;;;10.06;56.85
15604;BME280;7902;49.042;9.092;2024-03-25T07:27:02;98378.25;;;10.05;57.32
15604;BME280;7902;49.042;9.092;2024-03-25T07:29:28;98371.56;;;10.12;56.82
15604;BME280;7902;49.042;9.092;2024-03-25T07:31:54;98363.34;;;10.17;56.52
15604;BME280;7902;49.042;9.092;2024-03-25T07:34:20;98356.28;;;10.17;56.61
15604;BME280;7902;49.042;9.092;2024-03-25T07:36:46;98362.31;;;10.29;56.82
15604;BME280;7902;49.042;9.092;2024-03-25T07:39:14;98364.44;;;10.35;56.37
15604;BME280;7902;49.042;9.092;2024-03-25T07:41:40;98357.97;;;10.39;55.86
15604;BME280;7902;49.042;9.092;2024-03-25T07:44:06;98364.19;;;10.38;55.59
15604;BME280;7902;49.042;9.092;2024-03-25T07:46:32;98340.81;;;10.35;54.83
15604;BME280;7902;49.042;9.092;2024-03-25T07:48:58;98350.38;;;10.36;55.23
15604;BME280;7902;49.042;9.092;2024-03-25T07:51:24;98356.56;;;10.35;54.85
15604;BME280;7902;49.042;9.092;2024-03-25T07:53:50;98356.13;;;10.30;54.98
15604;BME280;7902;49.042;9.092;2024-03-25T07:56:16;98355.81;;;10.44;54.28
15604;BME280;7902;49.042;9.092;2024-03-25T07:58:42;98358.66;;;10.41;54.67
15604;BME280;7902;49.042;9.092;2024-03-25T08:01:08;98360.50;;;10.40;54.63
15604;BME280;7902;49.042;9.092;2024-03-25T08:03:34;98357.09;;;10.49;53.77
15604;BME280;7902;49.042;9.092;2024-03-25T08:06:00;98365.78;;;10.50;53.25
15604;BME280;7902;49.042;9.092;2024-03-25T08:08:26;98358.53;;;10.42;52.60
15604;BME280;7902;49.042;9.092;2024-03-25T08:10:52;98358.66;;;10.62;53.55
15604;BME280;7902;49.042;9.092;2024-03-25T08:13:19;98362.19;;;10.51;53.51
15604;BME280;7902;49.042;9.092;2024-03-25T08:15:48;98365.88;;;10.69;52.95
15604;BME280;7902;49.042;9.092;2024-03-25T08:18:14;98365.78;;;10.71;52.74
15604;BME280;7902;49.042;9.092;2024-03-25T08:20:40;98363.97;;;10.71;53.51
15604;BME280;7902;49.042;9.092;2024-03-25T08:23:06;98362.25;;;10.81;53.28
15604;BME280;7902;49.042;9.092;2024-03-25T08:25:32;98356.03;;;10.82;53.53
15604;BME280;7902;49.042;9.092;2024-03-25T08:27:58;98351.91;;;10.89;52.65
15604;BME280;7902;49.042;9.092;2024-03-25T08:30:24;98353.13;;;10.85;51.96
15604;BME280;7902;49.042;9.092;2024-03-25T08:32:51;98352.81;;;10.79;51.17
15604;BME280;7902;49.042;9.092;2024-03-25T08:35:17;98344.75;;;10.91;51.70
15604;BME280;7902;49.042;9.092;2024-03-25T08:37:43;98337.53;;;10.93;51.40
15604;BME280;7902;49.042;9.092;2024-03-25T08:40:09;98342.88;;;11.13;51.19
15604;BME280;7902;49.042;9.092;2024-03-25T08:42:35;98345.06;;;11.08;50.98
15604;BME280;7902;49.042;9.092;2024-03-25T08:45:02;98342.59;;;11.06;50.33
15604;BME280;7902;49.042;9.092;2024-03-25T08:47:27;98337.09;;;11.19;51.07
15604;BME280;7902;49.042;9.092;2024-03-25T08:49:53;98331.00;;;11.18;49.38
15604;BME280;7902;49.042;9.092;2024-03-25T08:52:19;98342.88;;;11.13;49.17
15604;BME280;7902;49.042;9.092;2024-03-25T08:54:45;98332.53;;;11.21;48.38
15604;BME280;7902;49.042;9.092;2024-03-25T08:57:11;98338.41;;;11.04;50.58
15604;BME280;7902;49.042;9.092;2024-03-25T08:59:37;98335.03;;;11.22;49.94
15604;BME280;7902;49.042;9.092;2024-03-25T09:02:03;98327.63;;;11.07;51.28
15604;BME280;7902;49.042;9.092;2024-03-25T09:04:29;98324.63;;;11.21;49.91
15604;BME280;7902;49.042;9.092;2024-03-25T09:06:55;98321.31;;;11.19;51.41
15604;BME280;7902;49.042;9.092;2024-03-25T09:09:20;98313.72;;;11.16;50.89
15604;BME280;7902;49.042;9.092;2024-03-25T09:12:05;98309.28;;;11.26;50.40
15604;BME280;7902;49.042;9.092;2024-03-25T09:14:32;98311.50;;;11.21;51.23
15604;BME280;7902;49.042;9.092;2024-03-25T09:16:59;98316.59;;;11.13;51.40
15604;BME280;7902;49.042;9.092;2024-03-25T09:19:25;98309.63;;;11.42;50.82
15604;BME280;7902;49.042;9.092;2024-03-25T09:21:51;98305.59;;;11.28;51.31
15604;BME280;7902;49.042;9.092;2024-03-25T09:24:17;98306.25;;;11.30;51.41
15604;BME280;7902;49.042;9.092;2024-03-25T09:26:44;98311.41;;;11.32;51.48
15604;BME280;7902;49.042;9.092;2024-03-25T09:29:12;98313.34;;;11.30;51.35
15604;BME280;7902;49.042;9.092;2024-03-25T09:31:38;98304.91;;;11.36;51.37
15604;BME280;7902;49.042;9.092;2024-03-25T09:34:05;98304.22;;;11.34;51.44
15604;BME280;7902;49.042;9.092;2024-03-25T09:36:31;98293.28;;;11.29;51.38
15604;BME280;7902;49.042;9.092;2024-03-25T09:38:57;98297.59;;;11.49;51.93
15604;BME280;7902;49.042;9.092;2024-03-25T09:41:23;98285.03;;;11.53;51.45
15604;BME280;7902;49.042;9.092;2024-03-25T09:43:54;98279.78;;;11.62;50.83
15604;BME280;7902;49.042;9.092;2024-03-25T09:46:20;98274.50;;;11.53;51.51
15604;BME280;7902;49.042;9.092;2024-03-25T09:48:46;98264.41;;;11.67;50.92
15604;BME280;7902;49.042;9.092;2024-03-25T09:51:12;98259.16;;;11.67;51.36
15604;BME280;7902;49.042;9.092;2024-03-25T09:53:38;98252.91;;;11.59;50.80
15604;BME280;7902;49.042;9.092;2024-03-25T09:56:05;98254.31;;;11.72;51.25
15604;BME280;7902;49.042;9.092;2024-03-25T09:58:31;98255.03;;;11.74;51.91
15604;BME280;7902;49.042;9.092;2024-03-25T10:00:58;98249.19;;;11.71;51.65
15604;BME280;7902;49.042;9.092;2024-03-25T10:03:24;98242.00;;;11.73;51.53
15604;BME280;7902;49.042;9.092;2024-03-25T10:05:50;98245.72;;;11.61;50.13
15604;BME280;7902;49.042;9.092;2024-03-25T10:08:22;98240.78;;;11.77;51.43
15604;BME280;7902;49.042;9.092;2024-03-25T10:10:49;98244.78;;;11.91;50.25
15604;BME280;7902;49.042;9.092;2024-03-25T10:13:16;98237.84;;;11.90;51.88
15604;BME280;7902;49.042;9.092;2024-03-25T10:15:42;98233.41;;;11.90;50.49
15604;BME280;7902;49.042;9.092;2024-03-25T10:18:11;98231.75;;;11.99;51.07
15604;BME280;7902;49.042;9.092;2024-03-25T10:20:37;98220.81;;;11.84;52.00
15604;BME280;7902;49.042;9.092;2024-03-25T10:23:03;98236.59;;;11.94;51.08
15604;BME280;7902;49.042;9.092;2024-03-25T10:25:31;98219.25;;;12.10;51.02
15604;BME280;7902;49.042;9.092;2024-03-25T10:28:00;98221.88;;;12.10;50.67
15604;BME280;7902;49.042;9.092;2024-03-25T10:30:28;98214.13;;;12.09;52.02
15604;BME280;7902;49.042;9.092;2024-03-25T10:33:04;98209.28;;;12.14;52.47
15604;BME280;7902;49.042;9.092;2024-03-25T10:35:33;98209.69;;;12.19;51.69
15604;BME280;7902;49.042;9.092;2024-03-25T10:38:09;98213.19;;;12.00;52.67
15604;BME280;7902;49.042;9.092;2024-03-25T10:40:39;98210.09;;;12.24;50.40
15604;BME280;7902;49.042;9.092;2024-03-25T10:43:06;98214.28;;;12.07;49.48
15604;BME280;7902;49.042;9.092;2024-03-25T10:48:19;98199.16;;;12.19;50.03
15604;BME280;7902;49.042;9.092;2024-03-25T10:50:46;98194.13;;;12.25;49.03
15604;BME280;7902;49.042;9.092;2024-03-25T10:53:14;98195.97;;;12.15;50.00
15604;BME280;7902;49.042;9.092;2024-03-25T10:55:44;98197.38;;;12.10;50.41
15604;BME280;7902;49.042;9.092;2024-03-25T10:58:15;98191.59;;;12.33;49.89
15604;BME280;7902;49.042;9.092;2024-03-25T11:00:42;98185.72;;;12.49;48.92
15604;BME280;7902;49.042;9.092;2024-03-25T11:03:10;98178.44;;;12.33;49.06
15604;BME280;7902;49.042;9.092;2024-03-25T11:05:37;98180.41;;;12.31;49.30
15604;BME280;7902;49.042;9.092;2024-03-25T11:08:10;98180.38;;;12.41;49.71
15604;BME280;7902;49.042;9.092;2024-03-25T11:10:45;98177.75;;;12.41;48.38
15604;BME280;7902;49.042;9.092;2024-03-25T11:13:19;98179.00;;;12.37;51.35
15604;BME280;7902;49.042;9.092;2024-03-25T11:15:47;98169.56;;;12.35;51.42
15604;BME280;7902;49.042;9.092;2024-03-25T11:18:17;98169.91;;;12.22;51.85
15604;BME280;7902;49.042;9.092;2024-03-25T11:20:44;98164.44;;;12.43;51.44
15604;BME280;7902;49.042;9.092;2024-03-25T11:23:14;98162.38;;;12.37;52.34
15604;BME280;7902;49.042;9.092;2024-03-25T11:25:41;98157.94;;;12.37;51.88
15604;BME280;7902;49.042;9.092;2024-03-25T11:28:09;98141.34;;;12.27;52.50
15604;BME280;7902;49.042;9.092;2024-03-25T11:30:36;98144.97;;;12.26;52.44
15604;BME280;7902;49.042;9.092;2024-03-25T11:33:02;98135.22;;;12.36;51.96
15604;BME280;7902;49.042;9.092;2024-03-25T11:35:40;98138.13;;;12.43;52.11
15604;BME280;7902;49.042;9.092;2024-03-25T11:38:06;98138.88;;;12.53;50.79
15604;BME280;7902;49.042;9.092;2024-03-25T11:40:32;98130.34;;;12.41;52.38
15604;BME280;7902;49.042;9.092;2024-03-25T11:42:58;98119.72;;;12.33;52.87
15604;BME280;7902;49.042;9.092;2024-03-25T11:45:24;98107.19;;;12.45;52.01
15604;BME280;7902;49.042;9.092;2024-03-25T11:47:50;98108.44;;;12.68;48.00
15604;BME280;7902;49.042;9.092;2024-03-25T11:50:18;98106.72;;;12.76;48.44
15604;BME280;7902;49.042;9.092;2024-03-25T11:52:44;98105.75;;;12.77;49.75
15604;BME280;7902;49.042;9.092;2024-03-25T11:55:11;98102.34;;;12.67;50.81
15604;BME280;7902;49.042;9.092;2024-03-25T11:57:40;98088.28;;;12.76;50.44
15604;BME280;7902;49.042;9.092;2024-03-25T12:00:08;98089.94;;;12.77;50.21
15604;BME280;7902;49.042;9.092;2024-03-25T12:02:46;98083.69;;;12.79;50.87
15604;BME280;7902;49.042;9.092;2024-03-25T12:05:12;98083.50;;;12.62;51.52
15604;BME280;7902;49.042;9.092;2024-03-25T12:07:38;98070.44;;;12.70;50.89
15604;BME280;7902;49.042;9.092;2024-03-25T12:10:04;98072.44;;;12.59;51.75
15604;BME280;7902;49.042;9.092;2024-03-25T12:12:49;98068.47;;;12.72;51.27
15604;BME280;7902;49.042;9.092;2024-03-25T12:15:16;98072.59;;;12.57;52.43
15604;BME280;7902;49.042;9.092;2024-03-25T12:17:42;98065.72;;;12.74;51.18
15604;BME280;7902;49.042;9.092;2024-03-25T12:20:09;98051.13;;;12.80;51.81
15604;BME280;7902;49.042;9.092;2024-03-25T12:22:36;98054.66;;;12.70;52.17
15604;BME280;7902;49.042;9.092;2024-03-25T12:25:03;98052.75;;;12.98;50.62
15604;BME280;7902;49.042;9.092;2024-03-25T12:27:30;98046.75;;;12.88;51.58
15604;BME280;7902;49.042;9.092;2024-03-25T12:30:09;98035.97;;;12.82;51.84
15604;BME280;7902;49.042;9.092;2024-03-25T12:32:40;98037.31;;;12.86;51.82
15604;BME280;7902;49.042;9.092;2024-03-25T12:37:37;98027.38;;;13.15;49.62
15604;BME280;7902;49.042;9.092;2024-03-25T12:40:05;98023.47;;;13.01;51.16
15604;BME280;7902;49.042;9.092;2024-03-25T12:42:32;98011.97;;;13.46;47.45
15604;BME280;7902;49.042;9.092;2024-03-25T12:44:58;98007.66;;;13.19;50.78
15604;BME280;7902;49.042;9.092;2024-03-25T12:47:24;98005.69;;;13.21;47.66
15604;BME280;7902;49.042;9.092;2024-03-25T12:49:50;97996.59;;;13.15;50.55
15604;BME280;7902;49.042;9.092;2024-03-25T12:52:16;97994.78;;;13.16;49.72
15604;BME280;7902;49.042;9.092;2024-03-25T12:54:42;97993.84;;;13.25;50.05
15604;BME280;7902;49.042;9.092;2024-03-25T12:57:09;97986.31;;;13.30;50.74
15604;BME280;7902;49.042;9.092;2024-03-25T12:59:35;97984.41;;;13.40;48.91
15604;BME280;7902;49.042;9.092;2024-03-25T13:02:01;97973.69;;;13.16;51.03
15604;BME280;7902;49.042;9.092;2024-03-25T13:04:28;97972.28;;;13.55;48.24
15604;BME280;7902;49.042;9.092;2024-03-25T13:06:54;97965.16;;;13.90;45.98
15604;BME280;7902;49.042;9.092;2024-03-25T13:09:20;97956.28;;;13.99;45.09
15604;BME280;7902;49.042;9.092;2024-03-25T13:11:46;97956.34;;;14.07;43.72
15604;BME280;7902;49.042;9.092;2024-03-25T13:14:12;97950.91;;;14.17;45.36
15604;BME280;7902;49.042;9.092;2024-03-25T13:16:39;97943.28;;;14.05;42.55
15604;BME280;7902;49.042;9.092;2024-03-25T13:19:06;97943.38;;;14.38;42.61
15604;BME280;7902;49.042;9.092;2024-03-25T13:21:32;97939.78;;;14.63;42.54
15604;BME280;7902;49.042;9.092;2024-03-25T13:23:58;97939.28;;;14.52;41.94